sensor_id;sensor_type;location;lat;lon;timestamp;pressure;altitude;pressure_sealevel;temperature;humidity
72061;BME280;59925;52.136;5.420;2023-04-12T00:02:09;100659.47;;;8.76;80.20
72061;BME280;59925;52.136;5.420;2023-04-12T00:04:36;100641.81;;;8.74;80.11
72061;BME280;59925;52.136;5.420;2023-04-12T00:07:03;100643.97;;;8.72;80.68
72061;BME280;59925;52.136;5.420;2023-04-12T00:09:33;100632.69;;;8.60;81.69
72061;BME280;59925;52.136;5.420;2023-04-12T00:12:01;100625.97;;;8.52;81.97
72061;BME280;59925;52.136;5.420;2023-04-12T00:14:28;100627.84;;;8.52;82.86
72061;BME280;59925;52.136;5.420;2023-04-12T00:16:54;100616.56;;;8.44;83.24
72061;BME280;59925;52.136;5.420;2023-04-12T00:19:21;100628.78;;;8.35;83.84
72061;BME280;59925;52.136;5.420;2023-04-12T00:21:50;100609.53;;;8.28;84.64
72061;BME280;59925;52.136;5.420;2023-04-12T00:24:17;100601.25;;;8.24;84.88
72061;BME280;59925;52.136;5.420;2023-04-12T00:26:44;100591.59;;;8.18;85.42
72061;BME280;59925;52.136;5.420;2023-04-12T00:29:11;100583.56;;;8.13;85.79
72061;BME280;59925;52.136;5.420;2023-04-12T00:31:37;100583.78;;;8.06;86.14
72061;BME280;59925;52.136;5.420;2023-04-12T00:34:04;100580.25;;;8.01;86.93
72061;BME280;59925;52.136;5.420;2023-04-12T00:36:30;100588.81;;;7.97;86.55
72061;BME280;59925;52.136;5.420;2023-04-12T00:38:57;100572.50;;;7.94;86.95
72061;BME280;59925;52.136;5.420;2023-04-12T00:41:25;100567.16;;;7.94;87.25
72061;BME280;59925;52.136;5.420;2023-04-12T00:43:52;100559.66;;;7.91;87.64
72061;BME280;59925;52.136;5.420;2023-04-12T00:46:19;100558.06;;;7.90;87.90
72061;BME280;59925;52.136;5.420;2023-04-12T00:48:46;100531.38;;;7.90;87.91
72061;BME280;59925;52.136;5.420;2023-04-12T00:51:13;100534.81;;;7.85;87.92
72061;BME280;59925;52.136;5.420;2023-04-12T00:53:40;100521.97;;;7.82;88.25
72061;BME280;59925;52.136;5.420;2023-04-12T00:56:07;100512.38;;;7.81;88.68
72061;BME280;59925;52.136;5.420;2023-04-12T00:58:37;100505.69;;;7.78;88.65
72061;BME280;59925;52.136;5.420;2023-04-12T01:01:03;100495.53;;;7.75;89.21
72061;BME280;59925;52.136;5.420;2023-04-12T01:03:30;100482.19;;;7.75;89.12
72061;BME280;59925;52.136;5.420;2023-04-12T01:12:07;100467.75;;;7.66;91.03
72061;BME280;59925;52.136;5.420;2023-04-12T01:14:45;100471.75;;;7.69;91.03
72061;BME280;59925;52.136;5.420;2023-04-12T01:17:19;100461.63;;;7.71;91.46
72061;BME280;59925;52.136;5.420;2023-04-12T01:20:01;100458.13;;;7.70;91.85
72061;BME280;59925;52.136;5.420;2023-04-12T01:28:19;100420.00;;;7.70;92.18
72061;BME280;59925;52.136;5.420;2023-04-12T01:30:49;100414.09;;;7.67;92.67
72061;BME280;59925;52.136;5.420;2023-04-12T01:33:16;100412.78;;;7.65;92.58
72061;BME280;59925;52.136;5.420;2023-04-12T01:35:43;100398.88;;;7.68;92.43
72061;BME280;59925;52.136;5.420;2023-04-12T01:38:10;100386.38;;;7.69;92.45
72061;BME280;59925;52.136;5.420;2023-04-12T01:40:37;100388.22;;;7.68;92.23
72061;BME280;59925;52.136;5.420;2023-04-12T01:43:11;100391.44;;;7.70;92.48
72061;BME280;59925;52.136;5.420;2023-04-12T01:45:38;100365.81;;;7.69;92.26
72061;BME280;59925;52.136;5.420;2023-04-12T01:48:07;100366.88;;;7.68;92.59
72061;BME280;59925;52.136;5.420;2023-04-12T01:50:40;100355.13;;;7.69;92.40
72061;BME280;59925;52.136;5.420;2023-04-12T01:53:20;100351.41;;;7.70;92.38
72061;BME280;59925;52.136;5.420;2023-04-12T01:55:49;100338.34;;;7.69;92.29
72061;BME280;59925;52.136;5.420;2023-04-12T01:58:21;100333.50;;;7.65;92.54
72061;BME280;59925;52.136;5.420;2023-04-12T02:00:49;100333.28;;;7.67;92.45
72061;BME280;59925;52.136;5.420;2023-04-12T02:03:19;100325.00;;;7.69;92.42
72061;BME280;59925;52.136;5.420;2023-04-12T02:05:48;100320.72;;;7.67;92.63
72061;BME280;59925;52.136;5.420;2023-04-12T02:08:16;100325.28;;;7.67;92.74
72061;BME280;59925;52.136;5.420;2023-04-12T02:10:43;100300.72;;;7.65;92.62
72061;BME280;59925;52.136;5.420;2023-04-12T02:13:09;100293.78;;;7.64;93.00
72061;BME280;59925;52.136;5.420;2023-04-12T02:15:36;100308.72;;;7.65;93.23
72061;BME280;59925;52.136;5.420;2023-04-12T02:18:02;100278.81;;;7.63;93.15
72061;BME280;59925;52.136;5.420;2023-04-12T02:20:29;100262.53;;;7.64;93.17
72061;BME280;59925;52.136;5.420;2023-04-12T02:22:56;100276.69;;;7.65;93.04
72061;BME280;59925;52.136;5.420;2023-04-12T02:25:22;100281.50;;;7.63;93.15
72061;BME280;59925;52.136;5.420;2023-04-12T02:27:49;100257.50;;;7.63;93.11
72061;BME280;59925;52.136;5.420;2023-04-12T02:30:15;100245.47;;;7.60;93.25
72061;BME280;59925;52.136;5.420;2023-04-12T02:32:42;100230.53;;;7.59;93.51
72061;BME280;59925;52.136;5.420;2023-04-12T02:35:13;100222.25;;;7.61;93.36
72061;BME280;59925;52.136;5.420;2023-04-12T02:37:46;100221.72;;;7.59;93.41
72061;BME280;59925;52.136;5.420;2023-04-12T02:40:13;100218.50;;;7.57;93.67
72061;BME280;59925;52.136;5.420;2023-04-12T02:42:41;100206.78;;;7.58;93.63
72061;BME280;59925;52.136;5.420;2023-04-12T02:45:09;100201.44;;;7.58;93.49
72061;BME280;59925;52.136;5.420;2023-04-12T02:47:36;100189.16;;;7.57;93.58
72061;BME280;59925;52.136;5.420;2023-04-12T02:50:03;100173.16;;;7.57;93.66
72061;BME280;59925;52.136;5.420;2023-04-12T02:52:30;100183.84;;;7.57;93.87
72061;BME280;59925;52.136;5.420;2023-04-12T02:54:58;100181.44;;;7.55;93.61
72061;BME280;59925;52.136;5.420;2023-04-12T02:57:24;100170.50;;;7.57;93.61
72061;BME280;59925;52.136;5.420;2023-04-12T02:59:51;100165.97;;;7.57;93.70
72061;BME280;59925;52.136;5.420;2023-04-12T03:02:21;100150.22;;;7.56;93.77
72061;BME280;59925;52.136;5.420;2023-04-12T03:04:48;100156.38;;;7.56;93.75
72061;BME280;59925;52.136;5.420;2023-04-12T03:07:20;100145.16;;;7.54;93.83
72061;BME280;59925;52.136;5.420;2023-04-12T03:09:48;100136.38;;;7.54;93.91
72061;BME280;59925;52.136;5.420;2023-04-12T03:12:15;100131.56;;;7.56;93.81
72061;BME280;59925;52.136;5.420;2023-04-12T03:14:42;100124.88;;;7.53;94.15
72061;BME280;59925;52.136;5.420;2023-04-12T03:17:08;100126.78;;;7.53;94.27
72061;BME280;59925;52.136;5.420;2023-04-12T03:19:35;100114.75;;;7.50;94.64
72061;BME280;59925;52.136;5.420;2023-04-12T03:22:02;100117.97;;;7.47;94.82
72061;BME280;59925;52.136;5.420;2023-04-12T03:24:29;100105.41;;;7.42;95.45
72061;BME280;59925;52.136;5.420;2023-04-12T03:27:02;100105.16;;;7.39;95.55
72061;BME280;59925;52.136;5.420;2023-04-12T03:29:30;100108.09;;;7.37;95.76
72061;BME280;59925;52.136;5.420;2023-04-12T03:31:56;100107.56;;;7.35;95.84
72061;BME280;59925;52.136;5.420;2023-04-12T03:34:24;100094.50;;;7.33;96.25
72061;BME280;59925;52.136;5.420;2023-04-12T03:36:53;100089.41;;;7.32;96.63
72061;BME280;59925;52.136;5.420;2023-04-12T03:39:21;100091.81;;;7.33;96.58
72061;BME280;59925;52.136;5.420;2023-04-12T03:41:48;100086.19;;;7.30;96.85
72061;BME280;59925;52.136;5.420;2023-04-12T03:44:15;100088.34;;;7.28;96.99
72061;BME280;59925;52.136;5.420;2023-04-12T03:46:41;100084.34;;;7.25;97.17
72061;BME280;59925;52.136;5.420;2023-04-12T03:49:08;100075.78;;;7.23;97.51
72061;BME280;59925;52.136;5.420;2023-04-12T03:51:34;100067.53;;;7.19;97.76
72061;BME280;59925;52.136;5.420;2023-04-12T03:54:01;100062.75;;;7.21;97.71
72061;BME280;59925;52.136;5.420;2023-04-12T03:56:28;100065.13;;;7.23;98.10
72061;BME280;59925;52.136;5.420;2023-04-12T03:58:54;100039.28;;;7.18;98.05
72061;BME280;59925;52.136;5.420;2023-04-12T04:01:21;100045.66;;;7.17;98.23
72061;BME280;59925;52.136;5.420;2023-04-12T04:03:48;100038.22;;;7.19;98.32
72061;BME280;59925;52.136;5.420;2023-04-12T04:06:16;100026.50;;;7.20;98.28
72061;BME280;59925;52.136;5.420;2023-04-12T04:08:43;100031.81;;;7.20;98.63
72061;BME280;59925;52.136;5.420;2023-04-12T04:11:11;100032.88;;;7.19;98.42
72061;BME280;59925;52.136;5.420;2023-04-12T04:13:38;100014.50;;;7.18;98.60
72061;BME280;59925;52.136;5.420;2023-04-12T04:16:05;100014.22;;;7.19;98.66
72061;BME280;59925;52.136;5.420;2023-04-12T04:18:32;100010.78;;;7.19;98.64
72061;BME280;59925;52.136;5.420;2023-04-12T04:21:01;100000.09;;;7.19;98.70
72061;BME280;59925;52.136;5.420;2023-04-12T04:23:30;99992.66;;;7.21;98.69
72061;BME280;59925;52.136;5.420;2023-04-12T04:26:07;99995.56;;;7.25;98.78
72061;BME280;59925;52.136;5.420;2023-04-12T04:28:38;99994.75;;;7.24;98.87
72061;BME280;59925;52.136;5.420;2023-04-12T04:31:07;99992.09;;;7.24;98.68
72061;BME280;59925;52.136;5.420;2023-04-12T04:33:36;99990.78;;;7.27;98.76
72061;BME280;59925;52.136;5.420;2023-04-12T04:36:03;99981.19;;;7.26;98.90
72061;BME280;59925;52.136;5.420;2023-04-12T04:38:30;99982.25;;;7.25;98.92
72061;BME280;59925;52.136;5.420;2023-04-12T04:41:00;99985.44;;;7.27;98.82
72061;BME280;59925;52.136;5.420;2023-04-12T04:43:28;99986.50;;;7.26;98.99
72061;BME280;59925;52.136;5.420;2023-04-12T04:45:59;99970.75;;;7.24;99.12
72061;BME280;59925;52.136;5.420;2023-04-12T04:48:26;99976.91;;;7.25;99.21
72061;BME280;59925;52.136;5.420;2023-04-12T04:50:55;99966.25;;;7.25;99.02
72061;BME280;59925;52.136;5.420;2023-04-12T04:53:21;99974.50;;;7.23;99.28
72061;BME280;59925;52.136;5.420;2023-04-12T04:55:48;99947.31;;;7.21;99.56
72061;BME280;59925;52.136;5.420;2023-04-12T04:58:15;99992.38;;;7.23;99.57
72061;BME280;59925;52.136;5.420;2023-04-12T05:00:41;99981.69;;;7.23;99.62
72061;BME280;59925;52.136;5.420;2023-04-12T05:03:11;99974.50;;;7.23;99.62
72061;BME280;59925;52.136;5.420;2023-04-12T05:05:38;99962.22;;;7.22;99.73
72061;BME280;59925;52.136;5.420;2023-04-12T05:08:05;99968.66;;;7.21;100.00
72061;BME280;59925;52.136;5.420;2023-04-12T05:10:31;99976.38;;;7.23;99.83
72061;BME280;59925;52.136;5.420;2023-04-12T05:12:58;99965.44;;;7.24;100.00
72061;BME280;59925;52.136;5.420;2023-04-12T05:15:24;99961.69;;;7.25;100.00
72061;BME280;59925;52.136;5.420;2023-04-12T05:17:51;99959.31;;;7.24;100.00
72061;BME280;59925;52.136;5.420;2023-04-12T05:20:17;99953.97;;;7.24;100.00
72061;BME280;59925;52.136;5.420;2023-04-12T05:22:44;99961.16;;;7.23;100.00
72061;BME280;59925;52.136;5.420;2023-04-12T05:25:10;99944.09;;;7.24;100.00
72061;BME280;59925;52.136;5.420;2023-04-12T05:27:37;99949.44;;;7.24;100.00
72061;BME280;59925;52.136;5.420;2023-04-12T05:30:04;99951.84;;;7.26;100.00
72061;BME280;59925;52.136;5.420;2023-04-12T05:32:31;99948.13;;;7.27;100.00
72061;BME280;59925;52.136;5.420;2023-04-12T05:34:58;99945.16;;;7.28;100.00
72061;BME280;59925;52.136;5.420;2023-04-12T05:37:24;99947.56;;;7.30;100.00
72061;BME280;59925;52.136;5.420;2023-04-12T05:39:53;99936.91;;;7.30;100.00
72061;BME280;59925;52.136;5.420;2023-04-12T05:42:19;99939.31;;;7.31;100.00
72061;BME280;59925;52.136;5.420;2023-04-12T05:44:45;99940.91;;;7.32;100.00
72061;BME280;59925;52.136;5.420;2023-04-12T05:47:15;99942.22;;;7.35;100.00
72061;BME280;59925;52.136;5.420;2023-04-12T05:49:41;99947.03;;;7.38;100.00
72061;BME280;59925;52.136;5.420;2023-04-12T05:52:08;99947.03;;;7.38;100.00
72061;BME280;59925;52.136;5.420;2023-04-12T05:54:34;99937.44;;;7.37;100.00
72061;BME280;59925;52.136;5.420;2023-04-12T05:57:01;99940.63;;;7.39;100.00
72061;BME280;59925;52.136;5.420;2023-04-12T05:59:27;99947.56;;;7.40;100.00
72061;BME280;59925;52.136;5.420;2023-04-12T06:01:54;99959.53;;;7.38;100.00
72061;BME280;59925;52.136;5.420;2023-04-12T06:04:21;99955.56;;;7.40;100.00
72061;BME280;59925;52.136;5.420;2023-04-12T06:06:49;99956.06;;;7.42;100.00
72061;BME280;59925;52.136;5.420;2023-04-12T06:09:15;99953.41;;;7.42;100.00
72061;BME280;59925;52.136;5.420;2023-04-12T06:11:42;99961.16;;;7.44;100.00
72061;BME280;59925;52.136;5.420;2023-04-12T06:14:08;99962.47;;;7.46;100.00
72061;BME280;59925;52.136;5.420;2023-04-12T06:16:37;99962.19;;;7.48;100.00
72061;BME280;59925;52.136;5.420;2023-04-12T06:19:06;99956.06;;;7.53;100.00
72061;BME280;59925;52.136;5.420;2023-04-12T06:21:33;99944.84;;;7.56;100.00
72061;BME280;59925;52.136;5.420;2023-04-12T06:23:59;99947.25;;;7.57;100.00
72061;BME280;59925;52.136;5.420;2023-04-12T06:26:26;99942.69;;;7.58;100.00
72061;BME280;59925;52.136;5.420;2023-04-12T06:29:04;99943.22;;;7.60;100.00
72061;BME280;59925;52.136;5.420;2023-04-12T06:31:30;99951.50;;;7.63;100.00
72061;BME280;59925;52.136;5.420;2023-04-12T06:33:57;99946.97;;;7.64;100.00
72061;BME280;59925;52.136;5.420;2023-04-12T06:36:23;99948.28;;;7.66;100.00
72061;BME280;59925;52.136;5.420;2023-04-12T06:38:50;99942.13;;;7.71;100.00
72061;BME280;59925;52.136;5.420;2023-04-12T06:41:16;99944.25;;;7.74;100.00
72061;BME280;59925;52.136;5.420;2023-04-12T06:43:43;99943.44;;;7.79;100.00
72061;BME280;59925;52.136;5.420;2023-04-12T06:46:09;99943.44;;;7.79;100.00
72061;BME280;59925;52.136;5.420;2023-04-12T06:48:35;99948.00;;;7.78;100.00
72061;BME280;59925;52.136;5.420;2023-04-12T06:51:02;99937.03;;;7.80;100.00
72061;BME280;59925;52.136;5.420;2023-04-12T06:53:29;99937.28;;;7.83;100.00
72061;BME280;59925;52.136;5.420;2023-04-12T06:55:56;99934.06;;;7.87;100.00
72061;BME280;59925;52.136;5.420;2023-04-12T06:58:22;99931.41;;;7.87;100.00
72061;BME280;59925;52.136;5.420;2023-04-12T07:00:48;99932.19;;;7.92;100.00
72061;BME280;59925;52.136;5.420;2023-04-12T07:03:15;99923.34;;;7.97;100.00
72061;BME280;59925;52.136;5.420;2023-04-12T07:05:42;99928.66;;;8.02;100.00
72061;BME280;59925;52.136;5.420;2023-04-12T07:08:08;99935.88;;;8.02;100.00
72061;BME280;59925;52.136;5.420;2023-04-12T07:10:34;99942.25;;;8.06;100.00
72061;BME280;59925;52.136;5.420;2023-04-12T07:13:01;99944.38;;;8.09;100.00
72061;BME280;59925;52.136;5.420;2023-04-12T07:15:32;99943.03;;;8.11;100.00
72061;BME280;59925;52.136;5.420;2023-04-12T07:17:58;99938.78;;;8.10;100.00
72061;BME280;59925;52.136;5.420;2023-04-12T07:20:25;99931.00;;;8.14;100.00
72061;BME280;59925;52.136;5.420;2023-04-12T07:22:51;99932.59;;;8.20;100.00
72061;BME280;59925;52.136;5.420;2023-04-12T07:25:18;99928.56;;;8.23;100.00
72061;BME280;59925;52.136;5.420;2023-04-12T07:27:44;99935.50;;;8.24;100.00
72061;BME280;59925;52.136;5.420;2023-04-12T07:30:11;99923.78;;;8.20;100.00
72061;BME280;59925;52.136;5.420;2023-04-12T07:32:37;99934.97;;;8.22;100.00
72061;BME280;59925;52.136;5.420;2023-04-12T07:35:04;99940.56;;;8.25;100.00
72061;BME280;59925;52.136;5.420;2023-04-12T07:37:31;99932.25;;;8.32;100.00
72061;BME280;59925;52.136;5.420;2023-04-12T07:39:57;99932.44;;;8.41;100.00
72061;BME280;59925;52.136;5.420;2023-04-12T07:42:24;99924.97;;;8.48;100.00
72061;BME280;59925;52.136;5.420;2023-04-12T07:44:50;99932.69;;;8.50;100.00
72061;BME280;59925;52.136;5.420;2023-04-12T07:47:17;99927.38;;;8.44;100.00
72061;BME280;59925;52.136;5.420;2023-04-12T07:49:43;99920.44;;;8.43;100.00
72061;BME280;59925;52.136;5.420;2023-04-12T07:52:10;99926.28;;;8.51;100.00
72061;BME280;59925;52.136;5.420;2023-04-12T07:54:36;99921.91;;;8.65;100.00
72061;BME280;59925;52.136;5.420;2023-04-12T07:57:03;99923.19;;;8.73;100.00
72061;BME280;59925;52.136;5.420;2023-04-12T07:59:29;99921.34;;;8.68;100.00
72061;BME280;59925;52.136;5.420;2023-04-12T08:01:57;99930.91;;;8.74;100.00
72061;BME280;59925;52.136;5.420;2023-04-12T08:04:23;99929.78;;;8.86;100.00
72061;BME280;59925;52.136;5.420;2023-04-12T08:06:50;99935.59;;;8.93;100.00
72061;BME280;59925;52.136;5.420;2023-04-12T08:09:17;99932.13;;;8.93;100.00
72061;BME280;59925;52.136;5.420;2023-04-12T08:11:43;99932.03;;;9.03;100.00
72061;BME280;59925;52.136;5.420;2023-04-12T08:14:10;99928.94;;;9.20;100.00
72061;BME280;59925;52.136;5.420;2023-04-12T08:16:36;99923.22;;;9.32;100.00
72061;BME280;59925;52.136;5.420;2023-04-12T08:19:03;99916.59;;;9.48;100.00
72061;BME280;59925;52.136;5.420;2023-04-12T08:21:29;99911.19;;;9.78;100.00
72061;BME280;59925;52.136;5.420;2023-04-12T08:23:56;99908.41;;;10.07;100.00
72061;BME280;59925;52.136;5.420;2023-04-12T08:26:23;99900.75;;;10.39;100.00
72061;BME280;59925;52.136;5.420;2023-04-12T08:28:49;99911.19;;;10.40;100.00
72061;BME280;59925;52.136;5.420;2023-04-12T08:31:16;99899.00;;;10.48;100.00
72061;BME280;59925;52.136;5.420;2023-04-12T08:33:43;99898.00;;;10.63;100.00
72061;BME280;59925;52.136;5.420;2023-04-12T08:36:09;99889.56;;;10.70;100.00
72061;BME280;59925;52.136;5.420;2023-04-12T08:38:36;99888.94;;;10.59;100.00
72061;BME280;59925;52.136;5.420;2023-04-12T08:41:11;99887.31;;;10.44;100.00
72061;BME280;59925;52.136;5.420;2023-04-12T08:43:42;99881.97;;;10.58;100.00
72061;BME280;59925;52.136;5.420;2023-04-12T08:46:11;99889.44;;;10.61;100.00
72061;BME280;59925;52.136;5.420;2023-04-12T08:48:45;99891.91;;;10.57;100.00
72061;BME280;59925;52.136;5.420;2023-04-12T08:51:14;99904.63;;;10.66;100.00
72061;BME280;59925;52.136;5.420;2023-04-12T08:53:41;99913.41;;;10.71;100.00
72061;BME280;59925;52.136;5.420;2023-04-12T08:56:09;99907.25;;;10.71;100.00
72061;BME280;59925;52.136;5.420;2023-04-12T08:58:41;99911.97;;;10.60;100.00
72061;BME280;59925;52.136;5.420;2023-04-12T09:01:11;99918.09;;;10.61;100.00
72061;BME280;59925;52.136;5.420;2023-04-12T09:03:42;99912.84;;;10.88;100.00
72061;BME280;59925;52.136;5.420;2023-04-12T09:06:11;99910.59;;;11.10;100.00
72061;BME280;59925;52.136;5.420;2023-04-12T09:08:53;99910.72;;;11.18;100.00
72061;BME280;59925;52.136;5.420;2023-04-12T09:11:24;99901.00;;;11.37;100.00
72061;BME280;59925;52.136;5.420;2023-04-12T09:13:55;99900.81;;;11.33;99.79
72061;BME280;59925;52.136;5.420;2023-04-12T09:19:00;99899.44;;;11.49;98.24
72061;BME280;59925;52.136;5.420;2023-04-12T09:21:28;99903.19;;;11.76;96.92
72061;BME280;59925;52.136;5.420;2023-04-12T09:24:05;99891.97;;;11.74;94.42
72061;BME280;59925;52.136;5.420;2023-04-12T09:26:38;99886.91;;;11.59;93.78
72061;BME280;59925;52.136;5.420;2023-04-12T09:29:20;99883.63;;;11.62;94.02
72061;BME280;59925;52.136;5.420;2023-04-12T09:32:04;99880.22;;;11.84;94.38
72061;BME280;59925;52.136;5.420;2023-04-12T09:34:32;99884.06;;;12.06;94.97
72061;BME280;59925;52.136;5.420;2023-04-12T09:36:59;99882.78;;;12.03;92.72
72061;BME280;59925;52.136;5.420;2023-04-12T09:39:37;99883.75;;;12.07;93.20
72061;BME280;59925;52.136;5.420;2023-04-12T09:42:07;99882.84;;;12.12;92.84
72061;BME280;59925;52.136;5.420;2023-04-12T09:44:55;99880.50;;;11.83;89.56
72061;BME280;59925;52.136;5.420;2023-04-12T09:47:35;99886.59;;;11.74;89.00
72061;BME280;59925;52.136;5.420;2023-04-12T09:50:04;99878.75;;;11.64;88.66
72061;BME280;59925;52.136;5.420;2023-04-12T09:52:37;99878.16;;;11.53;87.25
72061;BME280;59925;52.136;5.420;2023-04-12T09:55:08;99891.47;;;11.44;86.67
72061;BME280;59925;52.136;5.420;2023-04-12T09:57:40;99883.22;;;11.55;87.67
72061;BME280;59925;52.136;5.420;2023-04-12T10:00:09;99885.59;;;11.70;87.32
72061;BME280;59925;52.136;5.420;2023-04-12T10:02:47;99885.66;;;11.93;86.51
72061;BME280;59925;52.136;5.420;2023-04-12T10:05:19;99883.88;;;11.88;84.40
72061;BME280;59925;52.136;5.420;2023-04-12T10:07:46;99889.97;;;11.80;81.52
72061;BME280;59925;52.136;5.420;2023-04-12T10:10:16;99879.19;;;11.94;81.66
72061;BME280;59925;52.136;5.420;2023-04-12T10:12:45;99878.00;;;11.86;78.15
72061;BME280;59925;52.136;5.420;2023-04-12T10:15:12;99873.53;;;11.95;78.44
72061;BME280;59925;52.136;5.420;2023-04-12T10:17:43;99869.91;;;12.14;77.86
72061;BME280;59925;52.136;5.420;2023-04-12T10:20:12;99880.00;;;12.31;75.94
72061;BME280;59925;52.136;5.420;2023-04-12T10:22:46;99871.66;;;12.33;74.49
72061;BME280;59925;52.136;5.420;2023-04-12T10:25:15;99858.06;;;12.38;72.24
72061;BME280;59925;52.136;5.420;2023-04-12T10:27:44;99864.84;;;12.35;73.13
72061;BME280;59925;52.136;5.420;2023-04-12T10:32:45;99855.59;;;12.41;72.64
72061;BME280;59925;52.136;5.420;2023-04-12T10:35:11;99865.47;;;12.55;71.51
72061;BME280;59925;52.136;5.420;2023-04-12T10:40:24;99861.19;;;12.31;71.03
72061;BME280;59925;52.136;5.420;2023-04-12T10:45:45;99859.47;;;12.35;72.02
72061;BME280;59925;52.136;5.420;2023-04-12T10:53:51;99873.56;;;11.68;72.62
72061;BME280;59925;52.136;5.420;2023-04-12T10:56:40;99874.06;;;11.70;73.59
72061;BME280;59925;52.136;5.420;2023-04-12T10:59:10;99875.34;;;11.72;74.90
72061;BME280;59925;52.136;5.420;2023-04-12T11:01:38;99880.22;;;11.70;76.02
72061;BME280;59925;52.136;5.420;2023-04-12T11:04:18;99885.81;;;11.60;76.79
72061;BME280;59925;52.136;5.420;2023-04-12T11:07:00;99877.53;;;11.70;77.60
72061;BME280;59925;52.136;5.420;2023-04-12T11:09:36;99873.72;;;11.85;nan
72061;BME280;59925;52.136;5.420;2023-04-12T11:14:33;99872.66;;;12.23;78.14
72061;BME280;59925;52.136;5.420;2023-04-12T11:22:17;99869.00;;;12.64;72.41
72061;BME280;59925;52.136;5.420;2023-04-12T11:24:46;99869.13;;;12.82;73.87
72061;BME280;59925;52.136;5.420;2023-04-12T11:27:13;99877.69;;;13.15;71.70
72061;BME280;59925;52.136;5.420;2023-04-12T11:29:42;99876.81;;;13.06;69.88
72061;BME280;59925;52.136;5.420;2023-04-12T11:32:10;99866.88;;;13.07;70.94
72061;BME280;59925;52.136;5.420;2023-04-12T11:34:43;99878.25;;;13.03;70.31
72061;BME280;59925;52.136;5.420;2023-04-12T11:37:10;99878.41;;;12.76;65.93
72061;BME280;59925;52.136;5.420;2023-04-12T11:39:43;99885.63;;;12.66;66.44
72061;BME280;59925;52.136;5.420;2023-04-12T11:42:12;99878.53;;;12.70;65.49
72061;BME280;59925;52.136;5.420;2023-04-12T11:44:42;99880.88;;;12.95;67.50
72061;BME280;59925;52.136;5.420;2023-04-12T11:47:24;99887.25;;;13.39;66.78
72061;BME280;59925;52.136;5.420;2023-04-12T11:49:56;99881.78;;;13.53;66.38
72061;BME280;59925;52.136;5.420;2023-04-12T11:52:28;99888.56;;;13.42;62.98
72061;BME280;59925;52.136;5.420;2023-04-12T11:54:55;99890.69;;;13.22;62.88
72061;BME280;59925;52.136;5.420;2023-04-12T11:57:24;99893.97;;;13.51;62.38
72061;BME280;59925;52.136;5.420;2023-04-12T11:59:51;99878.47;;;13.56;60.88
72061;BME280;59925;52.136;5.420;2023-04-12T12:02:17;99881.03;;;13.61;61.95
72061;BME280;59925;52.136;5.420;2023-04-12T12:04:49;99871.84;;;13.71;61.07
72061;BME280;59925;52.136;5.420;2023-04-12T12:07:17;99884.84;;;13.69;59.63
72061;BME280;59925;52.136;5.420;2023-04-12T12:09:45;99881.94;;;13.48;58.41
72061;BME280;59925;52.136;5.420;2023-04-12T12:12:14;99891.75;;;13.12;56.86
72061;BME280;59925;52.136;5.420;2023-04-12T12:14:43;99895.16;;;13.36;56.33
72061;BME280;59925;52.136;5.420;2023-04-12T12:17:12;99884.88;;;13.95;53.25
72061;BME280;59925;52.136;5.420;2023-04-12T12:19:40;99882.81;;;14.36;53.34
72061;BME280;59925;52.136;5.420;2023-04-12T12:22:18;99875.50;;;14.72;51.79
72061;BME280;59925;52.136;5.420;2023-04-12T12:24:56;99869.25;;;14.98;52.99
72061;BME280;59925;52.136;5.420;2023-04-12T12:29:59;99880.38;;;14.96;53.19
72061;BME280;59925;52.136;5.420;2023-04-12T12:32:31;99887.34;;;15.06;51.68
72061;BME280;59925;52.136;5.420;2023-04-12T12:34:59;99889.19;;;15.14;50.25
72061;BME280;59925;52.136;5.420;2023-04-12T12:37:27;99882.25;;;15.43;52.33
72061;BME280;59925;52.136;5.420;2023-04-12T12:40:07;99884.91;;;15.52;48.22
72061;BME280;59925;52.136;5.420;2023-04-12T12:42:52;99891.72;;;14.54;47.62
72061;BME280;59925;52.136;5.420;2023-04-12T12:45:22;99892.81;;;14.18;48.72
72061;BME280;59925;52.136;5.420;2023-04-12T12:50:25;99899.91;;;14.93;49.10
72061;BME280;59925;52.136;5.420;2023-04-12T12:52:52;99896.44;;;14.57;45.51
72061;BME280;59925;52.136;5.420;2023-04-12T12:55:20;99907.88;;;14.28;45.63
72061;BME280;59925;52.136;5.420;2023-04-12T12:57:50;99921.69;;;14.35;46.35
72061;BME280;59925;52.136;5.420;2023-04-12T13:00:32;99907.72;;;14.16;46.24
72061;BME280;59925;52.136;5.420;2023-04-12T13:02:58;99907.72;;;14.24;46.01
72061;BME280;59925;52.136;5.420;2023-04-12T13:05:26;99909.47;;;14.20;47.35
72061;BME280;59925;52.136;5.420;2023-04-12T13:07:52;99915.81;;;14.24;46.36
72061;BME280;59925;52.136;5.420;2023-04-12T13:10:18;99902.81;;;14.18;47.90
72061;BME280;59925;52.136;5.420;2023-04-12T13:12:45;99912.16;;;14.20;45.79
72061;BME280;59925;52.136;5.420;2023-04-12T13:15:12;99906.47;;;14.75;47.04
72061;BME280;59925;52.136;5.420;2023-04-12T13:17:50;99907.38;;;15.65;46.17
72061;BME280;59925;52.136;5.420;2023-04-12T13:20:17;99908.75;;;15.50;44.39
72061;BME280;59925;52.136;5.420;2023-04-12T13:22:43;99909.22;;;15.13;44.22
72061;BME280;59925;52.136;5.420;2023-04-12T13:25:10;99913.59;;;14.88;44.37
72061;BME280;59925;52.136;5.420;2023-04-12T13:27:36;99906.28;;;14.18;44.05
72061;BME280;59925;52.136;5.420;2023-04-12T13:30:03;99898.38;;;14.04;43.85
72061;BME280;59925;52.136;5.420;2023-04-12T13:32:30;99906.59;;;13.82;44.03
72061;BME280;59925;52.136;5.420;2023-04-12T13:34:57;99904.38;;;14.54;45.98
72061;BME280;59925;52.136;5.420;2023-04-12T13:37:23;99905.91;;;14.99;43.94
72061;BME280;59925;52.136;5.420;2023-04-12T13:39:50;99907.50;;;15.00;45.53
72061;BME280;59925;52.136;5.420;2023-04-12T13:42:17;99899.91;;;14.93;44.47
72061;BME280;59925;52.136;5.420;2023-04-12T13:44:43;99902.94;;;14.56;44.43
72061;BME280;59925;52.136;5.420;2023-04-12T13:47:10;99902.34;;;14.24;45.10
72061;BME280;59925;52.136;5.420;2023-04-12T13:49:36;99909.75;;;14.01;45.11